sensor_id;sensor_type;location;lat;lon;timestamp;pressure;altitude;pressure_sealevel;temperature;humidity
71666;BME280;59503;53.486;10.196;2023-03-16T00:00:23;102094.81;;;-3.14;100.00
71666;BME280;59503;53.486;10.196;2023-03-16T00:02:49;102104.19;;;-3.11;100.00
71666;BME280;59503;53.486;10.196;2023-03-16T00:05:14;102089.72;;;-3.15;100.00
71666;BME280;59503;53.486;10.196;2023-03-16T00:07:40;102102.78;;;-3.14;100.00
71666;BME280;59503;53.486;10.196;2023-03-16T00:10:07;102099.88;;;-3.12;100.00
71666;BME280;59503;53.486;10.196;2023-03-16T00:12:32;102101.50;;;-3.11;100.00
71666;BME280;59503;53.486;10.196;2023-03-16T00:14:59;102101.50;;;-3.11;100.00
71666;BME280;59503;53.486;10.196;2023-03-16T00:17:26;102098.28;;;-3.13;100.00
71666;BME280;59503;53.486;10.196;2023-03-16T00:19:53;102106.25;;;-3.13;100.00
71666;BME280;59503;53.486;10.196;2023-03-16T00:22:20;102103.03;;;-3.15;100.00
71666;BME280;59503;53.486;10.196;2023-03-16T00:24:46;102107.94;;;-3.07;100.00
71666;BME280;59503;53.486;10.196;2023-03-16T00:27:13;102112.66;;;-2.98;100.00
71666;BME280;59503;53.486;10.196;2023-03-16T00:29:45;102111.03;;;-2.99;100.00
71666;BME280;59503;53.486;10.196;2023-03-16T00:32:18;102109.09;;;-3.03;100.00
71666;BME280;59503;53.486;10.196;2023-03-16T00:34:45;102120.56;;;-3.03;100.00
71666;BME280;59503;53.486;10.196;2023-03-16T00:37:13;102114.56;;;-3.10;100.00
71666;BME280;59503;53.486;10.196;2023-03-16T00:39:40;102118.00;;;-2.98;100.00
71666;BME280;59503;53.486;10.196;2023-03-16T00:42:07;102109.78;;;-2.96;100.00
71666;BME280;59503;53.486;10.196;2023-03-16T00:44:34;102115.41;;;-2.93;100.00
71666;BME280;59503;53.486;10.196;2023-03-16T00:47:00;102109.38;;;-2.88;100.00
71666;BME280;59503;53.486;10.196;2023-03-16T00:49:25;102100.16;;;-2.97;100.00
71666;BME280;59503;53.486;10.196;2023-03-16T00:51:51;102113.44;;;-2.97;100.00
71666;BME280;59503;53.486;10.196;2023-03-16T00:54:16;102107.19;;;-2.91;100.00
71666;BME280;59503;53.486;10.196;2023-03-16T00:56:42;102113.09;;;-2.89;100.00
71666;BME280;59503;53.486;10.196;2023-03-16T00:59:07;102098.41;;;-2.92;100.00
71666;BME280;59503;53.486;10.196;2023-03-16T01:01:33;102103.97;;;-2.93;100.00
71666;BME280;59503;53.486;10.196;2023-03-16T01:03:58;102106.06;;;-2.79;100.00
71666;BME280;59503;53.486;10.196;2023-03-16T01:06:24;102106.88;;;-2.78;100.00
71666;BME280;59503;53.486;10.196;2023-03-16T01:08:50;102109.97;;;-2.70;100.00
71666;BME280;59503;53.486;10.196;2023-03-16T01:11:19;102108.13;;;-2.69;100.00
71666;BME280;59503;53.486;10.196;2023-03-16T01:13:45;102105.47;;;-2.69;100.00
71666;BME280;59503;53.486;10.196;2023-03-16T01:16:14;102103.53;;;-2.57;100.00
71666;BME280;59503;53.486;10.196;2023-03-16T01:18:42;102105.72;;;-2.54;100.00
71666;BME280;59503;53.486;10.196;2023-03-16T01:21:08;102096.91;;;-2.38;100.00
71666;BME280;59503;53.486;10.196;2023-03-16T01:23:35;102096.75;;;-2.31;100.00
71666;BME280;59503;53.486;10.196;2023-03-16T01:26:01;102097.88;;;-2.27;100.00
71666;BME280;59503;53.486;10.196;2023-03-16T01:28:28;102100.78;;;-2.29;100.00
71666;BME280;59503;53.486;10.196;2023-03-16T01:30:58;102091.41;;;-2.31;100.00
71666;BME280;59503;53.486;10.196;2023-03-16T01:33:26;102087.16;;;-2.32;100.00
71666;BME280;59503;53.486;10.196;2023-03-16T01:38:18;102083.03;;;-2.40;100.00
71666;BME280;59503;53.486;10.196;2023-03-16T01:40:43;102086.00;;;-2.36;100.00
71666;BME280;59503;53.486;10.196;2023-03-16T01:43:10;102078.53;;;-2.39;100.00
71666;BME280;59503;53.486;10.196;2023-03-16T01:48:21;102091.50;;;-2.43;100.00
71666;BME280;59503;53.486;10.196;2023-03-16T01:50:49;102088.53;;;-2.46;100.00
71666;BME280;59503;53.486;10.196;2023-03-16T01:53:16;102094.50;;;-2.56;100.00
71666;BME280;59503;53.486;10.196;2023-03-16T01:55:42;102093.03;;;-2.64;100.00
71666;BME280;59503;53.486;10.196;2023-03-16T01:58:09;102101.75;;;-2.68;100.00
71666;BME280;59503;53.486;10.196;2023-03-16T02:00:35;102093.69;;;-2.73;100.00
71666;BME280;59503;53.486;10.196;2023-03-16T02:03:07;102091.75;;;-2.78;100.00
71666;BME280;59503;53.486;10.196;2023-03-16T02:05:49;102091.41;;;-2.81;100.00
71666;BME280;59503;53.486;10.196;2023-03-16T02:08:17;102084.97;;;-2.69;100.00
71666;BME280;59503;53.486;10.196;2023-03-16T02:10:44;102083.69;;;-2.66;100.00
71666;BME280;59503;53.486;10.196;2023-03-16T02:13:10;102091.09;;;-2.68;100.00
71666;BME280;59503;53.486;10.196;2023-03-16T02:15:37;102080.78;;;-2.65;100.00
71666;BME280;59503;53.486;10.196;2023-03-16T02:18:03;102078.03;;;-2.70;100.00
71666;BME280;59503;53.486;10.196;2023-03-16T02:21:05;102084.50;;;-2.66;100.00
71666;BME280;59503;53.486;10.196;2023-03-16T02:23:35;102086.84;;;-2.69;100.00
71666;BME280;59503;53.486;10.196;2023-03-16T02:28:52;102083.13;;;-2.68;100.00
71666;BME280;59503;53.486;10.196;2023-03-16T02:31:20;102084.50;;;-2.66;100.00
71666;BME280;59503;53.486;10.196;2023-03-16T02:33:48;102079.72;;;-2.64;100.00
71666;BME280;59503;53.486;10.196;2023-03-16T02:36:17;102075.63;;;-2.55;100.00
71666;BME280;59503;53.486;10.196;2023-03-16T02:38:43;102070.63;;;-2.51;100.00
71666;BME280;59503;53.486;10.196;2023-03-16T02:41:13;102070.63;;;-2.51;100.00
71666;BME280;59503;53.486;10.196;2023-03-16T02:43:44;102078.38;;;-2.49;100.00
71666;BME280;59503;53.486;10.196;2023-03-16T02:46:10;102075.69;;;-2.49;100.00
71666;BME280;59503;53.486;10.196;2023-03-16T02:48:41;102069.03;;;-2.52;100.00
71666;BME280;59503;53.486;10.196;2023-03-16T02:51:09;102076.44;;;-2.54;100.00
71666;BME280;59503;53.486;10.196;2023-03-16T02:53:38;102072.88;;;-2.60;100.00
71666;BME280;59503;53.486;10.196;2023-03-16T02:56:05;102057.41;;;-2.63;100.00
71666;BME280;59503;53.486;10.196;2023-03-16T02:58:30;102065.63;;;-2.64;100.00
71666;BME280;59503;53.486;10.196;2023-03-16T03:00:56;102065.97;;;-2.61;100.00
71666;BME280;59503;53.486;10.196;2023-03-16T03:03:22;102072.63;;;-2.58;100.00
71666;BME280;59503;53.486;10.196;2023-03-16T03:05:47;102073.13;;;-2.61;100.00
71666;BME280;59503;53.486;10.196;2023-03-16T03:08:13;102071.59;;;-2.57;100.00
71666;BME280;59503;53.486;10.196;2023-03-16T03:10:40;102066.56;;;-2.54;100.00
71666;BME280;59503;53.486;10.196;2023-03-16T03:13:05;102063.63;;;-2.57;100.00
71666;BME280;59503;53.486;10.196;2023-03-16T03:15:33;102068.94;;;-2.57;100.00
71666;BME280;59503;53.486;10.196;2023-03-16T03:18:00;102076.28;;;-2.64;100.00
71666;BME280;59503;53.486;10.196;2023-03-16T03:20:26;102080.94;;;-2.71;100.00
71666;BME280;59503;53.486;10.196;2023-03-16T03:22:51;102082.78;;;-2.72;100.00
71666;BME280;59503;53.486;10.196;2023-03-16T03:25:19;102092.69;;;-2.67;100.00
71666;BME280;59503;53.486;10.196;2023-03-16T03:27:47;102096.41;;;-2.68;100.00
71666;BME280;59503;53.486;10.196;2023-03-16T03:30:16;102091.91;;;-2.68;100.00
71666;BME280;59503;53.486;10.196;2023-03-16T03:32:41;102086.09;;;-2.65;100.00
71666;BME280;59503;53.486;10.196;2023-03-16T03:35:08;102081.28;;;-2.51;100.00
71666;BME280;59503;53.486;10.196;2023-03-16T03:37:37;102074.44;;;-2.47;100.00
71666;BME280;59503;53.486;10.196;2023-03-16T03:40:04;102076.53;;;-2.49;100.00
71666;BME280;59503;53.486;10.196;2023-03-16T03:42:30;102075.94;;;-2.51;100.00
71666;BME280;59503;53.486;10.196;2023-03-16T03:44:55;102080.78;;;-2.48;100.00
71666;BME280;59503;53.486;10.196;2023-03-16T03:47:22;102073.53;;;-2.53;100.00
71666;BME280;59503;53.486;10.196;2023-03-16T03:49:47;102076.53;;;-2.49;100.00
71666;BME280;59503;53.486;10.196;2023-03-16T03:52:14;102081.28;;;-2.51;100.00
71666;BME280;59503;53.486;10.196;2023-03-16T03:54:39;102072.22;;;-2.50;100.00
71666;BME280;59503;53.486;10.196;2023-03-16T03:57:05;102090.63;;;-2.48;100.00
71666;BME280;59503;53.486;10.196;2023-03-16T03:59:31;102084.44;;;-2.54;100.00
71666;BME280;59503;53.486;10.196;2023-03-16T04:01:59;102090.31;;;-2.52;100.00
71666;BME280;59503;53.486;10.196;2023-03-16T04:04:25;102087.09;;;-2.54;100.00
71666;BME280;59503;53.486;10.196;2023-03-16T04:06:50;102090.84;;;-2.50;100.00
71666;BME280;59503;53.486;10.196;2023-03-16T04:09:16;102088.75;;;-2.48;100.00
71666;BME280;59503;53.486;10.196;2023-03-16T04:11:41;102077.63;;;-2.45;100.00
71666;BME280;59503;53.486;10.196;2023-03-16T04:14:07;102082.25;;;-2.40;100.00
71666;BME280;59503;53.486;10.196;2023-03-16T04:16:33;102084.66;;;-2.39;100.00
71666;BME280;59503;53.486;10.196;2023-03-16T04:19:00;102083.09;;;-2.35;100.00
71666;BME280;59503;53.486;10.196;2023-03-16T04:21:26;102087.41;;;-2.34;100.00
71666;BME280;59503;53.486;10.196;2023-03-16T04:23:51;102083.69;;;-2.33;100.00
71666;BME280;59503;53.486;10.196;2023-03-16T04:26:20;102074.66;;;-2.32;100.00
71666;BME280;59503;53.486;10.196;2023-03-16T04:28:45;102079.50;;;-2.29;100.00
71666;BME280;59503;53.486;10.196;2023-03-16T04:31:12;102075.75;;;-2.28;100.00
71666;BME280;59503;53.486;10.196;2023-03-16T04:33:39;102078.69;;;-2.29;100.00
71666;BME280;59503;53.486;10.196;2023-03-16T04:36:05;102075.44;;;-2.31;100.00
71666;BME280;59503;53.486;10.196;2023-03-16T04:38:32;102082.16;;;-2.29;100.00
71666;BME280;59503;53.486;10.196;2023-03-16T04:40:58;102073.59;;;-2.31;100.00
71666;BME280;59503;53.486;10.196;2023-03-16T04:43:25;102072.69;;;-2.36;100.00
71666;BME280;59503;53.486;10.196;2023-03-16T04:45:52;102074.09;;;-2.34;100.00
71666;BME280;59503;53.486;10.196;2023-03-16T04:48:17;102073.53;;;-2.36;100.00
71666;BME280;59503;53.486;10.196;2023-03-16T04:50:43;102077.25;;;-2.37;100.00
71666;BME280;59503;53.486;10.196;2023-03-16T04:53:09;102081.44;;;-2.41;100.00
71666;BME280;59503;53.486;10.196;2023-03-16T04:55:35;102072.63;;;-2.41;100.00
71666;BME280;59503;53.486;10.196;2023-03-16T04:58:00;102071.75;;;-2.47;100.00
71666;BME280;59503;53.486;10.196;2023-03-16T05:00:26;102079.50;;;-2.45;100.00
71666;BME280;59503;53.486;10.196;2023-03-16T05:02:52;102076.03;;;-2.46;100.00
71666;BME280;59503;53.486;10.196;2023-03-16T05:05:20;102073.13;;;-2.44;100.00
71666;BME280;59503;53.486;10.196;2023-03-16T05:07:47;102067.38;;;-2.36;100.00
71666;BME280;59503;53.486;10.196;2023-03-16T05:10:15;102079.16;;;-2.32;100.00
71666;BME280;59503;53.486;10.196;2023-03-16T05:12:41;102073.34;;;-2.29;100.00
71666;BME280;59503;53.486;10.196;2023-03-16T05:15:07;102069.88;;;-2.30;100.00
71666;BME280;59503;53.486;10.196;2023-03-16T05:17:33;102069.47;;;-2.22;100.00
71666;BME280;59503;53.486;10.196;2023-03-16T05:19:59;102070.34;;;-2.16;100.00
71666;BME280;59503;53.486;10.196;2023-03-16T05:22:24;102059.75;;;-2.11;100.00
71666;BME280;59503;53.486;10.196;2023-03-16T05:24:50;102065.66;;;-2.09;100.00
71666;BME280;59503;53.486;10.196;2023-03-16T05:27:15;102062.41;;;-2.11;100.00
71666;BME280;59503;53.486;10.196;2023-03-16T05:29:41;102058.53;;;-2.04;100.00
71666;BME280;59503;53.486;10.196;2023-03-16T05:32:10;102063.63;;;-2.02;100.00
71666;BME280;59503;53.486;10.196;2023-03-16T05:34:36;102067.63;;;-2.00;100.00
71666;BME280;59503;53.486;10.196;2023-03-16T05:37:02;102059.09;;;-2.02;100.00
71666;BME280;59503;53.486;10.196;2023-03-16T05:39:28;102065.03;;;-1.95;100.00
71666;BME280;59503;53.486;10.196;2023-03-16T05:41:55;102067.25;;;-1.92;100.00
71666;BME280;59503;53.486;10.196;2023-03-16T05:44:21;102071.50;;;-1.91;100.00
71666;BME280;59503;53.486;10.196;2023-03-16T05:46:48;102074.16;;;-1.91;100.00
71666;BME280;59503;53.486;10.196;2023-03-16T05:49:14;102087.00;;;-1.88;100.00
71666;BME280;59503;53.486;10.196;2023-03-16T05:51:40;102100.06;;;-1.86;100.00
71666;BME280;59503;53.486;10.196;2023-03-16T05:54:06;102083.81;;;-1.85;100.00
71666;BME280;59503;53.486;10.196;2023-03-16T05:56:31;102093.84;;;-1.75;100.00
71666;BME280;59503;53.486;10.196;2023-03-16T05:58:57;102081.28;;;-1.75;100.00
71666;BME280;59503;53.486;10.196;2023-03-16T06:01:23;102087.56;;;-1.64;100.00
71666;BME280;59503;53.486;10.196;2023-03-16T06:03:49;102091.41;;;-1.55;100.00
71666;BME280;59503;53.486;10.196;2023-03-16T06:06:17;102090.47;;;-1.44;100.00
71666;BME280;59503;53.486;10.196;2023-03-16T06:08:43;102091.59;;;-1.40;100.00
71666;BME280;59503;53.486;10.196;2023-03-16T06:11:10;102086.06;;;-1.34;100.00
71666;BME280;59503;53.486;10.196;2023-03-16T06:13:36;102086.94;;;-1.28;100.00
71666;BME280;59503;53.486;10.196;2023-03-16T06:16:01;102085.13;;;-1.23;100.00
71666;BME280;59503;53.486;10.196;2023-03-16T06:18:27;102093.72;;;-1.15;100.00
71666;BME280;59503;53.486;10.196;2023-03-16T06:20:53;102072.34;;;-1.20;100.00
71666;BME280;59503;53.486;10.196;2023-03-16T06:23:18;102086.59;;;-1.10;100.00
71666;BME280;59503;53.486;10.196;2023-03-16T06:25:46;102085.84;;;-1.05;100.00
71666;BME280;59503;53.486;10.196;2023-03-16T06:28:13;102078.13;;;-1.02;100.00
71666;BME280;59503;53.486;10.196;2023-03-16T06:30:39;102082.22;;;-0.94;100.00
71666;BME280;59503;53.486;10.196;2023-03-16T06:33:05;102086.53;;;-0.88;100.00
71666;BME280;59503;53.486;10.196;2023-03-16T06:35:31;102090.31;;;-0.84;100.00
71666;BME280;59503;53.486;10.196;2023-03-16T06:37:57;102086.06;;;-0.80;100.00
71666;BME280;59503;53.486;10.196;2023-03-16T06:40:23;102101.69;;;-0.67;100.00
71666;BME280;59503;53.486;10.196;2023-03-16T06:42:50;102114.06;;;-0.56;100.00
71666;BME280;59503;53.486;10.196;2023-03-16T06:45:16;102103.97;;;-0.49;100.00
71666;BME280;59503;53.486;10.196;2023-03-16T06:47:42;102110.44;;;-0.40;100.00
71666;BME280;59503;53.486;10.196;2023-03-16T06:50:08;102122.28;;;-0.31;100.00
71666;BME280;59503;53.486;10.196;2023-03-16T06:52:35;102110.81;;;-0.27;100.00
71666;BME280;59503;53.486;10.196;2023-03-16T06:55:00;102099.69;;;-0.19;100.00
71666;BME280;59503;53.486;10.196;2023-03-16T06:57:26;102114.41;;;-0.11;100.00
71666;BME280;59503;53.486;10.196;2023-03-16T06:59:52;102109.38;;;-0.08;100.00
71666;BME280;59503;53.486;10.196;2023-03-16T07:02:17;102120.91;;;-0.02;100.00
71666;BME280;59503;53.486;10.196;2023-03-16T07:04:44;102109.94;;;-0.01;100.00
71666;BME280;59503;53.486;10.196;2023-03-16T07:07:09;102110.81;;;0.10;100.00
71666;BME280;59503;53.486;10.196;2023-03-16T07:09:36;102114.84;;;0.13;100.00
71666;BME280;59503;53.486;10.196;2023-03-16T07:12:04;102103.84;;;0.09;100.00
71666;BME280;59503;53.486;10.196;2023-03-16T07:14:30;102113.22;;;0.12;100.00
71666;BME280;59503;53.486;10.196;2023-03-16T07:16:55;102121.56;;;0.20;100.00
71666;BME280;59503;53.486;10.196;2023-03-16T07:19:21;102123.22;;;0.31;100.00
71666;BME280;59503;53.486;10.196;2023-03-16T07:21:47;102112.03;;;0.39;100.00
71666;BME280;59503;53.486;10.196;2023-03-16T07:24:15;102119.84;;;0.56;100.00
71666;BME280;59503;53.486;10.196;2023-03-16T07:26:41;102118.28;;;0.65;100.00
71666;BME280;59503;53.486;10.196;2023-03-16T07:29:07;102121.03;;;0.80;100.00
71666;BME280;59503;53.486;10.196;2023-03-16T07:31:34;102127.81;;;1.02;100.00
71666;BME280;59503;53.486;10.196;2023-03-16T07:34:00;102126.22;;;1.26;100.00
71666;BME280;59503;53.486;10.196;2023-03-16T07:40:33;102124.09;;;1.84;100.00
71666;BME280;59503;53.486;10.196;2023-03-16T07:42:58;102120.59;;;1.83;100.00
71666;BME280;59503;53.486;10.196;2023-03-16T07:45:24;102125.69;;;2.00;100.00
71666;BME280;59503;53.486;10.196;2023-03-16T07:47:50;102121.91;;;2.11;100.00
71666;BME280;59503;53.486;10.196;2023-03-16T07:50:15;102130.53;;;1.98;100.00
71666;BME280;59503;53.486;10.196;2023-03-16T07:52:43;102137.75;;;1.97;100.00
71666;BME280;59503;53.486;10.196;2023-03-16T07:55:10;102133.19;;;2.03;100.00
71666;BME280;59503;53.486;10.196;2023-03-16T07:57:36;102134.25;;;1.97;100.00
71666;BME280;59503;53.486;10.196;2023-03-16T08:00:04;102136.91;;;2.12;100.00
71666;BME280;59503;53.486;10.196;2023-03-16T08:02:29;102135.00;;;2.27;100.00
71666;BME280;59503;53.486;10.196;2023-03-16T08:04:55;102130.44;;;2.33;99.43
71666;BME280;59503;53.486;10.196;2023-03-16T08:07:21;102135.22;;;2.46;98.30
71666;BME280;59503;53.486;10.196;2023-03-16T08:09:46;102132.53;;;2.51;99.68
71666;BME280;59503;53.486;10.196;2023-03-16T08:12:11;102131.31;;;2.87;100.00
71666;BME280;59503;53.486;10.196;2023-03-16T08:14:37;102122.75;;;3.29;95.58
71666;BME280;59503;53.486;10.196;2023-03-16T08:17:04;102124.50;;;3.43;92.74
71666;BME280;59503;53.486;10.196;2023-03-16T08:19:31;102124.97;;;3.84;90.54
71666;BME280;59503;53.486;10.196;2023-03-16T08:21:58;102124.41;;;3.87;90.46
71666;BME280;59503;53.486;10.196;2023-03-16T08:24:26;102124.66;;;3.91;88.92
71666;BME280;59503;53.486;10.196;2023-03-16T08:26:51;102127.78;;;4.03;89.01
71666;BME280;59503;53.486;10.196;2023-03-16T08:29:17;102125.50;;;4.15;86.46
71666;BME280;59503;53.486;10.196;2023-03-16T08:31:43;102126.53;;;4.42;88.21
71666;BME280;59503;53.486;10.196;2023-03-16T08:34:09;102140.72;;;4.71;86.53
71666;BME280;59503;53.486;10.196;2023-03-16T08:36:35;102129.59;;;4.78;83.76
71666;BME280;59503;53.486;10.196;2023-03-16T08:39:02;102127.22;;;4.95;84.13
71666;BME280;59503;53.486;10.196;2023-03-16T08:41:30;102126.66;;;5.35;82.93
71666;BME280;59503;53.486;10.196;2023-03-16T08:43:57;102124.00;;;5.49;78.99
71666;BME280;59503;53.486;10.196;2023-03-16T08:46:23;102121.88;;;5.83;76.00
71666;BME280;59503;53.486;10.196;2023-03-16T08:48:48;102119.59;;;6.03;75.20
71666;BME280;59503;53.486;10.196;2023-03-16T08:51:14;102123.44;;;6.16;76.41
71666;BME280;59503;53.486;10.196;2023-03-16T08:53:42;102127.41;;;6.18;73.74
71666;BME280;59503;53.486;10.196;2023-03-16T08:56:09;102127.22;;;6.28;73.58
71666;BME280;59503;53.486;10.196;2023-03-16T08:58:37;102131.34;;;6.40;72.43
71666;BME280;59503;53.486;10.196;2023-03-16T09:01:04;102122.34;;;6.44;71.72
71666;BME280;59503;53.486;10.196;2023-03-16T09:03:33;102119.03;;;6.47;72.76
71666;BME280;59503;53.486;10.196;2023-03-16T09:06:01;102119.13;;;6.56;71.29
71666;BME280;59503;53.486;10.196;2023-03-16T09:08:27;102119.03;;;6.47;70.39
71666;BME280;59503;53.486;10.196;2023-03-16T09:11:05;102112.75;;;6.38;70.30
71666;BME280;59503;53.486;10.196;2023-03-16T09:13:32;102106.09;;;6.85;72.45
71666;BME280;59503;53.486;10.196;2023-03-16T09:15:58;102110.38;;;6.86;67.27
71666;BME280;59503;53.486;10.196;2023-03-16T09:18:24;102106.53;;;6.65;67.74
71666;BME280;59503;53.486;10.196;2023-03-16T09:20:51;102101.13;;;7.36;67.55
71666;BME280;59503;53.486;10.196;2023-03-16T09:23:17;102097.34;;;7.59;64.68
71666;BME280;59503;53.486;10.196;2023-03-16T09:25:43;102096.22;;;7.60;63.84
71666;BME280;59503;53.486;10.196;2023-03-16T09:28:09;102083.94;;;7.54;64.22
71666;BME280;59503;53.486;10.196;2023-03-16T09:30:36;102086.56;;;7.23;63.35
71666;BME280;59503;53.486;10.196;2023-03-16T09:33:02;102077.66;;;7.45;64.54
71666;BME280;59503;53.486;10.196;2023-03-16T09:35:28;102079.13;;;7.29;63.45
71666;BME280;59503;53.486;10.196;2023-03-16T09:37:54;102068.31;;;7.29;65.10
71666;BME280;59503;53.486;10.196;2023-03-16T09:40:26;102077.88;;;7.13;65.37
71666;BME280;59503;53.486;10.196;2023-03-16T09:43:18;102077.50;;;7.72;64.43
71666;BME280;59503;53.486;10.196;2023-03-16T09:45:50;102081.81;;;7.73;62.76
71666;BME280;59503;53.486;10.196;2023-03-16T09:48:20;102059.16;;;7.61;64.92
71666;BME280;59503;53.486;10.196;2023-03-16T09:50:46;102067.41;;;7.95;63.27
71666;BME280;59503;53.486;10.196;2023-03-16T09:53:34;102057.84;;;7.89;62.54
71666;BME280;59503;53.486;10.196;2023-03-16T09:56:05;102071.81;;;8.13;64.98
71666;BME280;59503;53.486;10.196;2023-03-16T09:58:32;102064.94;;;8.46;64.08
71666;BME280;59503;53.486;10.196;2023-03-16T10:01:18;102064.56;;;8.87;58.79
71666;BME280;59503;53.486;10.196;2023-03-16T10:04:01;102059.59;;;8.80;58.83
71666;BME280;59503;53.486;10.196;2023-03-16T10:06:30;102062.63;;;8.78;57.99
71666;BME280;59503;53.486;10.196;2023-03-16T10:12:13;102054.50;;;8.96;58.66
71666;BME280;59503;53.486;10.196;2023-03-16T10:14:44;102050.03;;;9.00;57.59
71666;BME280;59503;53.486;10.196;2023-03-16T10:17:25;102051.47;;;9.06;57.24
71666;BME280;59503;53.486;10.196;2023-03-16T10:19:54;102042.38;;;8.85;56.45
71666;BME280;59503;53.486;10.196;2023-03-16T10:22:37;102039.31;;;8.69;57.05
71666;BME280;59503;53.486;10.196;2023-03-16T10:27:42;102046.81;;;8.55;54.71
71666;BME280;59503;53.486;10.196;2023-03-16T10:32:46;102042.88;;;8.95;54.28
71666;BME280;59503;53.486;10.196;2023-03-16T10:37:47;102039.34;;;9.37;53.92
71666;BME280;59503;53.486;10.196;2023-03-16T10:40:13;102034.53;;;9.26;52.67
71666;BME280;59503;53.486;10.196;2023-03-16T10:42:40;102042.94;;;9.58;50.43
71666;BME280;59503;53.486;10.196;2023-03-16T10:45:19;102036.38;;;9.68;47.87
71666;BME280;59503;53.486;10.196;2023-03-16T10:47:46;102035.56;;;9.76;43.75
71666;BME280;59503;53.486;10.196;2023-03-16T10:50:13;102038.84;;;9.90;44.61
71666;BME280;59503;53.486;10.196;2023-03-16T10:52:44;102033.53;;;10.02;43.86
71666;BME280;59503;53.486;10.196;2023-03-16T10:55:23;102029.94;;;9.89;43.90
71666;BME280;59503;53.486;10.196;2023-03-16T10:57:51;102027.38;;;9.84;43.25
71666;BME280;59503;53.486;10.196;2023-03-16T11:02:54;102013.47;;;9.31;38.74
71666;BME280;59503;53.486;10.196;2023-03-16T11:05:31;102010.59;;;9.28;39.87
71666;BME280;59503;53.486;10.196;2023-03-16T11:08:11;102005.97;;;9.37;41.76
71666;BME280;59503;53.486;10.196;2023-03-16T11:10:40;102008.31;;;9.55;42.69
71666;BME280;59503;53.486;10.196;2023-03-16T11:13:19;102015.78;;;9.67;41.29
71666;BME280;59503;53.486;10.196;2023-03-16T11:18:46;102001.84;;;9.77;38.91
71666;BME280;59503;53.486;10.196;2023-03-16T11:24:29;101995.63;;;9.76;36.11
71666;BME280;59503;53.486;10.196;2023-03-16T11:26:59;101986.97;;;9.83;37.32
71666;BME280;59503;53.486;10.196;2023-03-16T11:32:05;101986.91;;;9.62;37.04
71666;BME280;59503;53.486;10.196;2023-03-16T11:34:33;101982.53;;;9.70;37.57
71666;BME280;59503;53.486;10.196;2023-03-16T11:37:22;101974.81;;;9.89;36.28
71666;BME280;59503;53.486;10.196;2023-03-16T11:49:10;101963.66;;;10.20;38.19
71666;BME280;59503;53.486;10.196;2023-03-16T11:56:56;101947.69;;;10.39;36.80
71666;BME280;59503;53.486;10.196;2023-03-16T12:02:53;101944.81;;;10.15;36.16
71666;BME280;59503;53.486;10.196;2023-03-16T12:05:52;101950.97;;;9.94;34.83
71666;BME280;59503;53.486;10.196;2023-03-16T12:08:45;101934.16;;;10.01;36.47
71666;BME280;59503;53.486;10.196;2023-03-16T12:11:21;101924.13;;;9.93;36.75
71666;BME280;59503;53.486;10.196;2023-03-16T12:16:56;101921.06;;;9.74;35.52
71666;BME280;59503;53.486;10.196;2023-03-16T12:22:20;101911.69;;;10.21;36.56
71666;BME280;59503;53.486;10.196;2023-03-16T12:24:51;101906.63;;;10.52;37.66
71666;BME280;59503;53.486;10.196;2023-03-16T12:30:05;101917.72;;;10.27;34.17
71666;BME280;59503;53.486;10.196;2023-03-16T12:32:49;101913.16;;;10.39;35.36
71666;BME280;59503;53.486;10.196;2023-03-16T12:44:11;101890.13;;;10.37;33.71
71666;BME280;59503;53.486;10.196;2023-03-16T12:49:05;101861.81;;;10.58;34.79
71666;BME280;59503;53.486;10.196;2023-03-16T12:51:37;101866.00;;;10.88;34.70
71666;BME280;59503;53.486;10.196;2023-03-16T12:54:04;101864.41;;;10.87;34.47
71666;BME280;59503;53.486;10.196;2023-03-16T12:56:35;101856.31;;;11.48;34.56
71666;BME280;59503;53.486;10.196;2023-03-16T12:59:18;101861.88;;;11.51;36.82
71666;BME280;59503;53.486;10.196;2023-03-16T13:01:48;101868.34;;;11.35;34.04
71666;BME280;59503;53.486;10.196;2023-03-16T13:04:33;101854.50;;;11.15;35.16
71666;BME280;59503;53.486;10.196;2023-03-16T13:07:03;101848.94;;;11.60;35.05
71666;BME280;59503;53.486;10.196;2023-03-16T13:09:29;101844.75;;;11.51;33.78
71666;BME280;59503;53.486;10.196;2023-03-16T13:11:58;101839.88;;;11.32;32.01
71666;BME280;59503;53.486;10.196;2023-03-16T13:14:40;101838.16;;;11.15;33.21
71666;BME280;59503;53.486;10.196;2023-03-16T13:19:42;101823.41;;;11.04;31.85
71666;BME280;59503;53.486;10.196;2023-03-16T13:22:28;101820.91;;;11.11;33.94
71666;BME280;59503;53.486;10.196;2023-03-16T13:24:59;101817.75;;;11.09;31.84
71666;BME280;59503;53.486;10.196;2023-03-16T13:27:37;101819.22;;;11.07;32.54
71666;BME280;59503;53.486;10.196;2023-03-16T13:30:19;101815.13;;;11.01;32.42
71666;BME280;59503;53.486;10.196;2023-03-16T13:32:45;101817.69;;;10.85;34.71
71666;BME280;59503;53.486;10.196;2023-03-16T13:35:13;101815.88;;;10.77;34.92
71666;BME280;59503;53.486;10.196;2023-03-16T13:37:41;101819.53;;;10.93;33.49
71666;BME280;59503;53.486;10.196;2023-03-16T13:40:20;101816.78;;;10.81;33.84
71666;BME280;59503;53.486;10.196;2023-03-16T13:42:47;101804.31;;;10.68;33.09
71666;BME280;59503;53.486;10.196;2023-03-16T13:45:19;101793.34;;;10.44;34.10
71666;BME280;59503;53.486;10.196;2023-03-16T13:47:48;101806.97;;;10.24;33.43
71666;BME280;59503;53.486;10.196;2023-03-16T13:50:15;101787.22;;;9.94;33.11
71666;BME280;59503;53.486;10.196;2023-03-16T13:52:42;101793.25;;;9.79;37.57
71666;BME280;59503;53.486;10.196;2023-03-16T13:55:16;101789.25;;;9.76;36.13
71666;BME280;59503;53.486;10.196;2023-03-16T13:57:43;101793.31;;;9.70;34.21